Time,TemperatureF,DewpointF,PressureIn,WindDirection,WindDirectionDegrees,WindSpeedMPH,WindSpeedGustMPH,Humidity,HourlyPrecipIn,Conditions,Clouds,dailyrainin,SolarRadiationWatts/m^2,SoftwareType,DateUTC
2013-01-01 00:12:00,15.0,10.0,-100.00,SW,219,1.0,3.0,81,0.00,,,0.00,0.000000,,2013-01-01 07:12:00,
2013-01-01 00:22:00,15.0,10.0,-100.00,SW,219,1.0,3.0,81,0.00,,,0.00,0.000000,,2013-01-01 07:22:00,
2013-01-01 00:32:00,15.0,10.0,-100.00,SW,219,1.0,3.0,81,0.00,,,0.00,0.000000,,2013-01-01 07:32:00,
2013-01-01 00:42:00,15.0,10.0,-100.00,SW,219,1.0,3.0,81,0.00,,,0.00,0.000000,,2013-01-01 07:42:00,
2013-01-01 00:52:00,15.0,10.0,-100.00,SW,219,1.0,3.0,81,0.00,,,0.00,0.000000,,2013-01-01 07:52:00,
2013-01-01 01:22:00,15.0,11.0,-100.00,East,88,0.0,4.0,82,-99.99,,,-99.99,0.000000,,2013-01-01 08:22:00,
2013-01-01 01:32:00,15.0,11.0,-100.00,East,88,0.0,4.0,82,-99.99,,,-99.99,0.000000,,2013-01-01 08:32:00,
2013-01-01 01:42:00,15.0,11.0,-100.00,East,88,0.0,4.0,82,-99.99,,,-99.99,0.000000,,2013-01-01 08:42:00,
2013-01-01 01:53:00,15.0,11.0,-100.00,East,88,0.0,4.0,82,-99.99,,,-99.99,0.000000,,2013-01-01 08:53:00,
2013-01-01 02:22:00,14.0,9.0,-100.00,North,356,0.0,4.0,80,0.00,,,-99.99,0.000000,,2013-01-01 09:22:00,
2013-01-01 02:32:00,14.0,9.0,-100.00,North,356,0.0,4.0,80,0.00,,,-99.99,0.000000,,2013-01-01 09:32:00,
2013-01-01 02:42:00,14.0,9.0,-100.00,North,356,0.0,4.0,80,0.00,,,-99.99,0.000000,,2013-01-01 09:42:00,
2013-01-01 02:52:00,14.0,9.0,-100.00,North,356,0.0,4.0,80,0.00,,,-99.99,0.000000,,2013-01-01 09:52:00,
2013-01-01 03:22:00,13.0,7.0,-100.00,North,1,1.0,3.0,78,0.00,,,-99.99,0.000000,,2013-01-01 10:22:00,
2013-01-01 03:33:00,13.0,7.0,-100.00,North,1,1.0,3.0,78,0.00,,,-99.99,0.000000,,2013-01-01 10:33:00,
2013-01-01 03:42:00,13.0,7.0,-100.00,North,1,1.0,3.0,78,0.00,,,-99.99,0.000000,,2013-01-01 10:42:00,
2013-01-01 03:52:00,13.0,7.0,-100.00,North,1,1.0,3.0,78,0.00,,,-99.99,0.000000,,2013-01-01 10:52:00,
2013-01-01 04:23:00,12.0,6.0,-100.00,WNW,302,1.0,5.0,78,0.00,,,-99.99,0.000000,,2013-01-01 11:23:00,
2013-01-01 04:33:00,12.0,6.0,-100.00,WNW,302,1.0,5.0,78,0.00,,,-99.99,0.000000,,2013-01-01 11:33:00,
2013-01-01 04:42:00,12.0,6.0,-100.00,WNW,302,1.0,5.0,78,0.00,,,-99.99,0.000000,,2013-01-01 11:42:00,
2013-01-01 04:53:00,12.0,6.0,-100.00,WNW,302,1.0,5.0,78,0.00,,,-99.99,0.000000,,2013-01-01 11:53:00,
2013-01-01 05:22:00,12.0,6.0,-100.00,NNW,331,0.0,2.0,77,0.00,,,-99.99,0.000000,,2013-01-01 12:22:00,
2013-01-01 05:33:00,12.0,6.0,-100.00,NNW,331,0.0,2.0,77,0.00,,,-99.99,0.000000,,2013-01-01 12:33:00,
2013-01-01 05:42:00,12.0,6.0,-100.00,NNW,331,0.0,2.0,77,0.00,,,-99.99,0.000000,,2013-01-01 12:42:00,
2013-01-01 05:52:00,12.0,6.0,-100.00,NNW,331,0.0,2.0,77,0.00,,,-99.99,0.000000,,2013-01-01 12:52:00,
2013-01-01 06:22:00,12.0,7.0,-100.00,NNW,345,2.0,3.0,79,0.00,,,-99.99,0.000000,,2013-01-01 13:22:00,
2013-01-01 06:33:00,12.0,7.0,-100.00,NNW,345,2.0,3.0,79,0.00,,,-99.99,0.000000,,2013-01-01 13:33:00,
2013-01-01 06:42:00,12.0,7.0,-100.00,NNW,345,2.0,3.0,79,0.00,,,-99.99,0.000000,,2013-01-01 13:42:00,
2013-01-01 06:52:00,12.0,7.0,-100.00,NNW,345,2.0,3.0,79,0.00,,,-99.99,0.000000,,2013-01-01 13:52:00,
2013-01-01 07:22:00,12.0,8.0,-100.00,West,271,2.0,5.0,82,0.00,,,-99.99,0.000000,,2013-01-01 14:22:00,
2013-01-01 07:32:00,12.0,8.0,-100.00,West,271,2.0,5.0,82,0.00,,,-99.99,0.000000,,2013-01-01 14:32:00,
2013-01-01 07:42:00,12.0,8.0,-100.00,West,271,2.0,5.0,82,0.00,,,-99.99,0.000000,,2013-01-01 14:42:00,
2013-01-01 07:53:00,12.0,8.0,-100.00,West,271,2.0,5.0,82,0.00,,,-99.99,0.000000,,2013-01-01 14:53:00,
2013-01-01 08:22:00,15.0,9.0,-100.00,West,263,5.0,10.0,77,0.00,,,-99.99,10.000000,,2013-01-01 15:22:00,
2013-01-01 08:33:00,15.0,9.0,-100.00,West,263,5.0,10.0,77,0.00,,,-99.99,10.000000,,2013-01-01 15:33:00,
2013-01-01 08:42:00,15.0,9.0,-100.00,West,263,5.0,10.0,77,0.00,,,-99.99,10.000000,,2013-01-01 15:42:00,
2013-01-01 08:53:00,15.0,9.0,-100.00,West,263,5.0,10.0,77,0.00,,,-99.99,10.000000,,2013-01-01 15:53:00,
2013-01-01 09:22:00,16.0,9.0,-100.00,WSW,248,4.0,9.0,73,0.00,,,-99.99,149.000000,,2013-01-01 16:22:00,
2013-01-01 09:33:00,16.0,9.0,-100.00,WSW,248,4.0,9.0,73,0.00,,,-99.99,149.000000,,2013-01-01 16:33:00,
2013-01-01 09:42:00,16.0,9.0,-100.00,WSW,248,4.0,9.0,73,0.00,,,-99.99,149.000000,,2013-01-01 16:42:00,
2013-01-01 09:52:00,16.0,9.0,-100.00,WSW,248,4.0,9.0,73,0.00,,,-99.99,149.000000,,2013-01-01 16:52:00,
2013-01-01 10:22:00,20.0,12.0,-100.00,West,271,5.0,12.0,70,0.00,,,-99.99,227.000000,,2013-01-01 17:22:00,
2013-01-01 10:33:00,20.0,12.0,-100.00,West,271,5.0,12.0,70,0.00,,,-99.99,227.000000,,2013-01-01 17:33:00,
2013-01-01 10:43:00,20.0,12.0,-100.00,West,271,5.0,12.0,70,0.00,,,-99.99,227.000000,,2013-01-01 17:43:00,
2013-01-01 10:52:00,20.0,12.0,-100.00,West,271,5.0,12.0,70,0.00,,,-99.99,227.000000,,2013-01-01 17:52:00,
2013-01-01 11:22:00,24.0,14.0,-100.00,WSW,255,6.0,10.0,65,0.00,,,-99.99,385.000000,,2013-01-01 18:22:00,
2013-01-01 11:33:00,24.0,14.0,-100.00,WSW,255,6.0,10.0,65,0.00,,,-99.99,385.000000,,2013-01-01 18:33:00,
2013-01-01 11:42:00,24.0,14.0,-100.00,WSW,255,6.0,10.0,65,0.00,,,-99.99,385.000000,,2013-01-01 18:42:00,
2013-01-01 11:52:00,24.0,14.0,-100.00,WSW,255,6.0,10.0,65,0.00,,,-99.99,385.000000,,2013-01-01 18:52:00,
2013-01-01 12:22:00,27.0,15.0,-100.00,WNW,297,8.0,14.0,60,0.00,,,-99.99,459.000000,,2013-01-01 19:22:00,
2013-01-01 12:33:00,27.0,15.0,-100.00,WNW,297,8.0,14.0,60,0.00,,,-99.99,459.000000,,2013-01-01 19:33:00,
2013-01-01 12:42:00,27.0,15.0,-100.00,WNW,297,8.0,14.0,60,0.00,,,-99.99,459.000000,,2013-01-01 19:42:00,
2013-01-01 12:52:00,27.0,15.0,-100.00,WNW,297,8.0,14.0,60,0.00,,,-99.99,459.000000,,2013-01-01 19:52:00,
2013-01-01 13:23:00,29.0,16.0,-100.00,WNW,292,6.0,15.0,57,0.00,,,-99.99,327.000000,,2013-01-01 20:23:00,
2013-01-01 13:32:00,29.0,16.0,-100.00,WNW,292,6.0,15.0,57,0.00,,,-99.99,327.000000,,2013-01-01 20:32:00,
2013-01-01 13:42:00,29.0,16.0,-100.00,WNW,292,6.0,15.0,57,0.00,,,-99.99,327.000000,,2013-01-01 20:42:00,
2013-01-01 13:52:00,29.0,16.0,-100.00,WNW,292,6.0,15.0,57,0.00,,,-99.99,327.000000,,2013-01-01 20:52:00,
2013-01-01 14:22:00,30.0,15.0,-100.00,WNW,296,7.0,22.0,54,0.00,,,-99.99,418.000000,,2013-01-01 21:22:00,
2013-01-01 14:33:00,30.0,15.0,-100.00,WNW,296,7.0,22.0,54,0.00,,,-99.99,418.000000,,2013-01-01 21:33:00,
2013-01-01 14:42:00,30.0,15.0,-100.00,WNW,296,7.0,22.0,54,0.00,,,-99.99,418.000000,,2013-01-01 21:42:00,
2013-01-01 14:52:00,30.0,15.0,-100.00,WNW,296,7.0,22.0,54,0.00,,,-99.99,418.000000,,2013-01-01 21:52:00,
2013-01-01 15:22:00,29.0,14.0,-100.00,WNW,300,8.0,18.0,54,0.00,,,-99.99,291.000000,,2013-01-01 22:22:00,
2013-01-01 15:33:00,29.0,14.0,-100.00,WNW,300,8.0,18.0,54,0.00,,,-99.99,291.000000,,2013-01-01 22:33:00,
2013-01-01 15:42:00,29.0,14.0,-100.00,WNW,300,8.0,18.0,54,0.00,,,-99.99,291.000000,,2013-01-01 22:42:00,
2013-01-01 15:52:00,29.0,14.0,-100.00,WNW,300,8.0,18.0,54,0.00,,,-99.99,291.000000,,2013-01-01 22:52:00,
2013-01-01 16:22:00,28.0,15.0,-100.00,WNW,289,6.0,12.0,58,0.00,,,-99.99,31.000000,,2013-01-01 23:22:00,
2013-01-01 16:32:00,28.0,15.0,-100.00,WNW,289,6.0,12.0,58,0.00,,,-99.99,31.000000,,2013-01-01 23:32:00,
2013-01-01 16:42:00,28.0,15.0,-100.00,WNW,289,6.0,12.0,58,0.00,,,-99.99,31.000000,,2013-01-01 23:42:00,
2013-01-01 16:52:00,28.0,15.0,-100.00,WNW,289,6.0,12.0,58,0.00,,,-99.99,31.000000,,2013-01-01 23:52:00,
2013-01-01 17:22:00,24.0,14.0,-100.00,WNW,287,5.0,13.0,66,0.00,,,-99.99,8.000000,,2013-01-02 00:22:00,
2013-01-01 17:32:00,24.0,14.0,-100.00,WNW,287,5.0,13.0,66,0.00,,,-99.99,8.000000,,2013-01-02 00:32:00,
2013-01-01 17:42:00,24.0,14.0,-100.00,WNW,287,5.0,13.0,66,0.00,,,-99.99,8.000000,,2013-01-02 00:42:00,
2013-01-01 17:52:00,24.0,14.0,-100.00,WNW,287,5.0,13.0,66,0.00,,,-99.99,8.000000,,2013-01-02 00:52:00,
2013-01-01 18:22:00,25.0,16.0,-100.00,WNW,286,6.0,13.0,68,0.00,,,-99.99,0.000000,,2013-01-02 01:22:00,
2013-01-01 18:32:00,25.0,16.0,-100.00,WNW,286,6.0,13.0,68,0.00,,,-99.99,0.000000,,2013-01-02 01:32:00,
2013-01-01 18:42:00,25.0,16.0,-100.00,WNW,286,6.0,13.0,68,0.00,,,-99.99,0.000000,,2013-01-02 01:42:00,
2013-01-01 18:52:00,25.0,16.0,-100.00,WNW,286,6.0,13.0,68,0.00,,,-99.99,0.000000,,2013-01-02 01:52:00,
2013-01-01 19:22:00,25.0,19.0,-100.00,WNW,302,6.0,16.0,78,0.00,,,-99.99,0.000000,,2013-01-02 02:22:00,
2013-01-01 19:32:00,25.0,19.0,-100.00,WNW,302,6.0,16.0,78,0.00,,,-99.99,0.000000,,2013-01-02 02:32:00,
2013-01-01 19:42:00,25.0,19.0,-100.00,WNW,302,6.0,16.0,78,0.00,,,-99.99,0.000000,,2013-01-02 02:42:00,
2013-01-01 19:52:00,25.0,19.0,-100.00,WNW,302,6.0,16.0,78,0.00,,,-99.99,0.000000,,2013-01-02 02:52:00,
2013-01-01 20:22:00,26.0,22.0,-100.00,WNW,291,8.0,28.0,85,0.00,,,-99.99,0.000000,,2013-01-02 03:22:00,
2013-01-01 20:32:00,26.0,22.0,-100.00,WNW,291,8.0,28.0,85,0.00,,,-99.99,0.000000,,2013-01-02 03:32:00,
2013-01-01 20:42:00,26.0,22.0,-100.00,WNW,291,8.0,28.0,85,0.00,,,-99.99,0.000000,,2013-01-02 03:42:00,
2013-01-01 20:52:00,26.0,22.0,-100.00,WNW,291,8.0,28.0,85,0.00,,,-99.99,0.000000,,2013-01-02 03:52:00,
2013-01-01 21:22:00,26.0,22.0,-100.00,NW,304,8.0,21.0,84,0.00,,,-99.99,0.000000,,2013-01-02 04:22:00,
2013-01-01 21:32:00,26.0,22.0,-100.00,NW,304,8.0,21.0,84,0.00,,,-99.99,0.000000,,2013-01-02 04:32:00,
2013-01-01 21:42:00,26.0,22.0,-100.00,NW,304,8.0,21.0,84,0.00,,,-99.99,0.000000,,2013-01-02 04:42:00,
2013-01-01 21:52:00,26.0,22.0,-100.00,NW,304,8.0,21.0,84,0.00,,,-99.99,0.000000,,2013-01-02 04:52:00,
2013-01-01 22:22:00,25.0,21.0,-100.00,NW,309,6.0,19.0,84,0.00,,,-99.99,0.000000,,2013-01-02 05:22:00,
2013-01-01 22:33:00,25.0,21.0,-100.00,NW,309,6.0,19.0,84,0.00,,,-99.99,0.000000,,2013-01-02 05:33:00,
2013-01-01 22:42:00,25.0,21.0,-100.00,NW,309,6.0,19.0,84,0.00,,,-99.99,0.000000,,2013-01-02 05:42:00,
2013-01-01 22:52:00,25.0,21.0,-100.00,NW,309,6.0,19.0,84,0.00,,,-99.99,0.000000,,2013-01-02 05:52:00,
2013-01-01 23:22:00,25.0,19.0,-100.00,WNW,303,6.0,17.0,79,0.00,,,-99.99,0.000000,,2013-01-02 06:22:00,
2013-01-01 23:32:00,25.0,19.0,-100.00,WNW,303,6.0,17.0,79,0.00,,,-99.99,0.000000,,2013-01-02 06:32:00,
2013-01-01 23:42:00,25.0,19.0,-100.00,WNW,303,6.0,17.0,79,0.00,,,-99.99,0.000000,,2013-01-02 06:42:00,
2013-01-01 23:52:00,25.0,19.0,-100.00,WNW,303,6.0,17.0,79,0.00,,,-99.99,0.000000,,2013-01-02 06:52:00,